Time;durP1;ratioP1;P1;durP2;ratioP2;P2;SDS_P1;SDS_P2;PMS_P1;PMS_P2;Temp;Humidity;BMP_temperature;BMP_pressure;BME280_temperature;BME280_humidity;BME280_pressure;Samples;Min_cycle;Max_cycle;Signal;HPM_P1;HPM_P2
2021/04/12 00:00:13;;;;;;;2.45;2.25;;;;;20.90;101018.00;;;;2068864;28;20238;-45
2021/04/12 00:01:17;;;;;;;3.10;1.92;;;;;20.90;101014.00;;;;2052510;28;20228;-46
2021/04/12 00:02:22;;;;;;;2.53;2.00;;;;;20.90;101026.00;;;;2054363;28;20619;-46
2021/04/12 00:03:35;;;;;;;2.60;2.10;;;;;20.90;101025.00;;;;2069258;28;20272;-45
2021/04/12 00:04:54;;;;;;;2.67;2.47;;;;;20.90;101027.00;;;;2060784;28;20242;-45
2021/04/12 00:06:08;;;;;;;2.65;2.42;;;;;20.90;101032.00;;;;2066959;28;20237;-45
2021/04/12 00:07:27;;;;;;;2.83;1.88;;;;;20.90;101028.00;;;;2070790;28;20226;-46
2021/04/12 00:08:39;;;;;;;2.28;2.00;;;;;20.80;101026.00;;;;2055741;28;20227;-46
2021/04/12 00:09:45;;;;;;;3.88;2.33;;;;;20.80;101027.00;;;;2070152;28;20229;-46
2021/04/12 00:10:59;;;;;;;2.13;1.63;;;;;20.90;101027.00;;;;2047969;28;20245;-47
2021/04/12 00:12:15;;;;;;;2.65;2.03;;;;;20.80;101023.00;;;;2060930;28;20222;-46
2021/04/12 00:13:35;;;;;;;2.78;1.65;;;;;20.80;101031.00;;;;2059922;28;20982;-46
2021/04/12 00:14:39;;;;;;;2.15;1.95;;;;;20.80;101029.00;;;;2065724;28;20266;-45
2021/04/12 00:15:49;;;;;;;2.10;1.70;;;;;20.80;101031.00;;;;2060950;28;20215;-46
2021/04/12 00:16:56;;;;;;;3.45;1.65;;;;;20.80;101040.00;;;;2065448;28;20622;-45
2021/04/12 00:17:59;;;;;;;2.22;1.45;;;;;20.80;101041.00;;;;2064171;28;20206;-46
2021/04/12 00:19:13;;;;;;;3.25;1.80;;;;;20.80;101033.00;;;;2068787;28;20228;-46
2021/04/12 00:20:36;;;;;;;2.75;1.50;;;;;20.80;101048.00;;;;2070594;28;20253;-45
2021/04/12 00:21:40;;;;;;;2.40;1.55;;;;;20.80;101040.00;;;;2076967;28;20241;-47
2021/04/12 00:23:06;;;;;;;1.60;1.50;;;;;20.80;101047.00;;;;2077241;28;20214;-45
2021/04/12 00:24:14;;;;;;;1.80;1.67;;;;;20.80;101038.00;;;;2075422;28;20276;-45
2021/04/12 00:25:41;;;;;;;3.40;1.80;;;;;20.80;101043.00;;;;2072877;28;20217;-45
2021/04/12 00:26:52;;;;;;;2.83;2.05;;;;;20.80;101040.00;;;;2064287;28;20226;-46
2021/04/12 00:27:55;;;;;;;3.63;1.80;;;;;20.80;101038.00;;;;2064946;28;20245;-45
2021/04/12 00:28:59;;;;;;;1.60;1.50;;;;;20.80;101038.00;;;;2068889;28;20229;-46
2021/04/12 00:30:16;;;;;;;1.90;1.40;;;;;20.70;101042.00;;;;2069011;28;20213;-45
2021/04/12 00:31:32;;;;;;;2.55;1.67;;;;;20.70;101042.00;;;;2049232;28;21290;-45
2021/04/12 00:32:38;;;;;;;1.73;1.40;;;;;20.70;101036.00;;;;2061283;28;20298;-45
2021/04/12 00:33:43;;;;;;;2.22;1.75;;;;;20.70;101031.00;;;;2067522;28;20214;-46
2021/04/12 00:34:58;;;;;;;1.45;1.27;;;;;20.70;101043.00;;;;2063802;28;20223;-47
2021/04/12 00:36:03;;;;;;;2.50;1.73;;;;;20.70;101041.00;;;;2074869;28;20214;-46
2021/04/12 00:37:09;;;;;;;2.90;1.55;;;;;20.70;101042.00;;;;2070747;28;20703;-45
2021/04/12 00:38:20;;;;;;;2.40;1.58;;;;;20.70;101035.00;;;;2063976;28;20302;-48
2021/04/12 00:39:35;;;;;;;2.88;1.67;;;;;20.70;101042.00;;;;2067722;28;20293;-46
2021/04/12 00:40:39;;;;;;;3.13;1.60;;;;;20.70;101036.00;;;;2068188;28;20714;-45
2021/04/12 00:41:48;;;;;;;3.55;1.60;;;;;20.70;101042.00;;;;2077790;28;20260;-46
2021/04/12 00:43:02;;;;;;;3.33;1.40;;;;;20.70;101030.00;;;;2073108;28;20214;-45
2021/04/12 00:44:20;;;;;;;2.15;1.60;;;;;20.70;101043.00;;;;2067838;28;20249;-45
2021/04/12 00:45:21;;;;;;;2.13;1.42;;;;;20.70;101036.00;;;;2072455;28;20300;-46
2021/04/12 00:46:33;;;;;;;1.60;1.50;;;;;20.70;101040.00;;;;2074393;28;20217;-46
2021/04/12 00:47:52;;;;;;;1.60;1.50;;;;;20.70;101035.00;;;;2078616;28;20218;-45
2021/04/12 00:49:24;;;;;;;2.05;1.63;;;;;20.60;101040.00;;;;2072410;28;20217;-45
2021/04/12 00:50:48;;;;;;;1.63;1.52;;;;;20.60;101049.00;;;;2074863;28;20210;-45
2021/04/12 00:52:02;;;;;;;1.90;1.35;;;;;20.60;101044.00;;;;2063514;28;20710;-45
2021/04/12 00:53:15;;;;;;;2.53;1.60;;;;;20.70;101055.00;;;;2064013;28;20659;-44
2021/04/12 00:54:38;;;;;;;2.08;1.35;;;;;20.60;101047.00;;;;2077007;28;20217;-46
2021/04/12 00:56:22;;;;;;;2.33;1.60;;;;;20.60;101053.00;;;;2078377;28;21054;-44
2021/04/12 00:57:33;;;;;;;2.70;1.45;;;;;20.60;101040.00;;;;2075719;28;20556;-46
2021/04/12 00:58:35;;;;;;;1.70;1.17;;;;;20.60;101046.00;;;;2069741;28;20889;-46
2021/04/12 00:59:44;;;;;;;2.22;1.48;;;;;20.60;101046.00;;;;2068500;28;20306;-46
2021/04/12 01:00:47;;;;;;;1.95;1.45;;;;;20.60;101051.00;;;;2078645;28;20253;-45
2021/04/12 01:02:22;;;;;;;2.25;1.33;;;;;20.60;101049.00;;;;2077908;28;20225;-46
2021/04/12 01:03:47;;;;;;;3.08;1.70;;;;;20.60;101050.00;;;;2050353;28;20229;-45
2021/04/12 01:05:00;;;;;;;1.75;1.48;;;;;20.60;101043.00;;;;2070180;28;20276;-46
2021/04/12 01:06:07;;;;;;;2.25;1.10;;;;;20.60;101050.00;;;;2076586;28;20212;-46
2021/04/12 01:07:30;;;;;;;1.88;1.20;;;;;20.60;101051.00;;;;2078661;28;20249;-45
2021/04/12 01:08:44;;;;;;;2.20;1.60;;;;;20.60;101044.00;;;;2065198;28;20221;-45
2021/04/12 01:10:09;;;;;;;2.33;1.38;;;;;20.60;101054.00;;;;2067572;28;20242;-45
2021/04/12 01:11:39;;;;;;;2.17;1.60;;;;;20.60;101052.00;;;;2070363;28;20596;-45
2021/04/12 01:13:05;;;;;;;1.55;1.45;;;;;20.50;101055.00;;;;2072001;28;20797;-46
2021/04/12 01:14:43;;;;;;;4.30;1.40;;;;;20.50;101053.00;;;;2076578;28;20355;-45
2021/04/12 01:15:55;;;;;;;3.85;1.50;;;;;20.50;101058.00;;;;2070913;28;20218;-46
2021/04/12 01:17:22;;;;;;;2.55;1.30;;;;;20.50;101064.00;;;;2069979;28;20305;-46
2021/04/12 01:18:37;;;;;;;2.63;1.90;;;;;20.50;101055.00;;;;2065057;28;20312;-46
2021/04/12 01:19:46;;;;;;;1.70;1.35;;;;;20.50;101056.00;;;;2080194;28;20218;-45
2021/04/12 01:20:53;;;;;;;1.90;1.50;;;;;20.50;101064.00;;;;2077895;28;20206;-46
2021/04/12 01:22:35;;;;;;;1.48;1.30;;;;;20.50;101056.00;;;;2079279;28;20221;-45
2021/04/12 01:23:41;;;;;;;2.10;1.88;;;;;20.50;101063.00;;;;2075428;28;20598;-45
2021/04/12 01:24:53;;;;;;;1.63;1.50;;;;;20.50;101068.00;;;;2068395;28;20313;-45
2021/04/12 01:26:09;;;;;;;2.13;1.48;;;;;20.50;101073.00;;;;2070134;28;20441;-46
2021/04/12 01:27:47;;;;;;;3.42;1.80;;;;;20.50;101069.00;;;;2079104;28;20210;-46
2021/04/12 01:29:06;;;;;;;1.70;1.60;;;;;20.50;101086.00;;;;2067703;28;20773;-45
2021/04/12 01:30:48;;;;;;;2.10;1.58;;;;;20.50;101086.00;;;;2068876;28;20218;-46
2021/04/12 01:31:48;;;;;;;3.88;1.55;;;;;20.50;101082.00;;;;2080672;28;20213;-45
2021/04/12 01:32:55;;;;;;;3.57;1.70;;;;;20.50;101085.00;;;;2078679;28;20297;-46
2021/04/12 01:33:58;;;;;;;2.05;1.40;;;;;20.40;101091.00;;;;2072361;28;20218;-45
2021/04/12 01:35:19;;;;;;;2.17;1.85;;;;;20.50;101088.00;;;;2070020;28;20221;-45
2021/04/12 01:36:26;;;;;;;2.10;1.50;;;;;20.40;101090.00;;;;2078239;28;20655;-45
2021/04/12 01:37:50;;;;;;;1.83;1.40;;;;;20.40;101058.00;;;;2079094;28;20226;-46
2021/04/12 01:39:29;;;;;;;1.95;1.30;;;;;20.30;101096.00;;;;2078768;28;20214;-45
2021/04/12 01:40:41;;;;;;;3.53;2.35;;;;;20.40;101092.00;;;;2074923;28;20651;-46
2021/04/12 01:42:01;;;;;;;1.65;1.40;;;;;20.40;101093.00;;;;2071394;28;20261;-44
2021/04/12 01:43:42;;;;;;;1.75;1.40;;;;;20.40;101099.00;;;;2069680;28;20215;-45
2021/04/12 01:44:52;;;;;;;3.83;1.75;;;;;20.40;101102.00;;;;2065422;28;20241;-45
2021/04/12 01:45:57;;;;;;;1.70;1.42;;;;;20.40;101093.00;;;;2069245;28;20226;-45
2021/04/12 01:47:13;;;;;;;1.85;1.63;;;;;20.40;101101.00;;;;2072478;28;20284;-45
2021/04/12 01:48:39;;;;;;;2.20;1.40;;;;;20.40;101090.00;;;;2058681;28;20215;-45
2021/04/12 01:49:58;;;;;;;2.20;1.80;;;;;20.40;101092.00;;;;2060030;28;20199;-46
2021/04/12 01:51:30;;;;;;;2.10;1.70;;;;;20.40;101093.00;;;;2069882;28;20218;-45
2021/04/12 01:53:11;;;;;;;1.65;1.40;;;;;20.40;101089.00;;;;2077031;28;20226;-44
2021/04/12 01:54:30;;;;;;;2.50;1.60;;;;;20.40;101104.00;;;;2068262;28;20238;-45
2021/04/12 01:55:44;;;;;;;2.72;1.60;;;;;20.40;101107.00;;;;2062958;28;20226;-44
2021/04/12 01:57:12;;;;;;;2.15;1.63;;;;;20.40;101105.00;;;;2073485;28;20287;-45
2021/04/12 01:58:34;;;;;;;2.28;1.50;;;;;20.40;101108.00;;;;2078091;28;20224;-45
2021/04/12 01:59:49;;;;;;;2.13;1.73;;;;;20.40;101120.00;;;;2066014;28;20207;-46
2021/04/12 02:00:57;;;;;;;1.95;1.70;;;;;20.40;101114.00;;;;2063107;28;20229;-47
2021/04/12 02:02:16;;;;;;;2.38;1.80;;;;;20.30;101106.00;;;;2071499;28;20222;-46
2021/04/12 02:03:24;;;;;;;2.15;1.63;;;;;20.40;101119.00;;;;2067233;28;20228;-46
2021/04/12 02:04:49;;;;;;;1.85;1.75;;;;;20.30;101118.00;;;;2065112;28;20597;-46
2021/04/12 02:06:20;;;;;;;2.50;1.65;;;;;20.30;101123.00;;;;2073961;28;20217;-45
2021/04/12 02:07:59;;;;;;;2.33;1.65;;;;;20.30;101130.00;;;;2078122;28;20220;-46
2021/04/12 02:09:15;;;;;;;1.70;1.50;;;;;20.30;101126.00;;;;2084602;28;20212;-47
2021/04/12 02:10:24;;;;;;;2.55;1.73;;;;;20.30;101134.00;;;;2061375;28;20219;-47
2021/04/12 02:11:33;;;;;;;2.38;1.40;;;;;20.30;101133.00;;;;2069143;28;20301;-46
2021/04/12 02:13:05;;;;;;;3.17;1.98;;;;;20.30;101137.00;;;;2071266;28;20238;-45
2021/04/12 02:14:17;;;;;;;1.85;1.40;;;;;20.30;101133.00;;;;2077216;28;20210;-46
2021/04/12 02:15:20;;;;;;;1.88;1.60;;;;;20.30;101133.00;;;;2069737;28;20222;-45
2021/04/12 02:16:47;;;;;;;2.63;1.73;;;;;20.30;101134.00;;;;2062043;28;20257;-45
2021/04/12 02:17:50;;;;;;;2.63;1.50;;;;;20.30;101140.00;;;;2069976;28;20304;-47
2021/04/12 02:19:28;;;;;;;2.20;1.70;;;;;20.30;101144.00;;;;2070248;28;20253;-45
2021/04/12 02:20:50;;;;;;;4.10;1.95;;;;;20.30;101134.00;;;;2074244;28;21075;-46
2021/04/12 02:22:13;;;;;;;1.92;1.77;;;;;20.30;101135.00;;;;2075196;28;20214;-45
2021/04/12 02:23:38;;;;;;;3.28;1.95;;;;;20.30;101137.00;;;;2076040;28;20264;-45
2021/04/12 02:25:05;;;;;;;2.00;1.80;;;;;20.20;101134.00;;;;2077405;28;20255;-45
2021/04/12 02:26:27;;;;;;;2.60;2.00;;;;;20.20;101137.00;;;;2074857;28;20494;-45
2021/04/12 02:27:33;;;;;;;2.10;1.90;;;;;20.30;101136.00;;;;2076061;28;20251;-45
2021/04/12 02:28:49;;;;;;;2.20;1.63;;;;;20.20;101129.00;;;;2077031;28;20301;-45
2021/04/12 02:29:49;;;;;;;1.98;1.77;;;;;20.20;101135.00;;;;2073175;28;20219;-45
2021/04/12 02:31:27;;;;;;;4.00;2.07;;;;;20.20;101144.00;;;;2074995;28;20300;-45
2021/04/12 02:32:40;;;;;;;2.33;2.13;;;;;20.20;101140.00;;;;2078571;28;20279;-46
2021/04/12 02:33:45;;;;;;;3.03;2.05;;;;;20.20;101150.00;;;;2077742;28;20777;-45
2021/04/12 02:35:13;;;;;;;2.30;2.03;;;;;20.20;101134.00;;;;2060460;28;20293;-45
2021/04/12 02:36:14;;;;;;;2.35;1.63;;;;;20.20;101132.00;;;;2068491;28;20691;-45
2021/04/12 02:37:34;;;;;;;2.92;2.08;;;;;20.20;101141.00;;;;2077803;28;20280;-45
2021/04/12 02:39:00;;;;;;;2.47;2.20;;;;;20.20;101144.00;;;;2077924;28;20217;-46
2021/04/12 02:40:13;;;;;;;4.00;2.33;;;;;20.20;101140.00;;;;2076410;28;20309;-46
2021/04/12 02:41:28;;;;;;;2.55;1.90;;;;;20.20;101149.00;;;;2069251;28;20723;-45
2021/04/12 02:42:56;;;;;;;3.28;1.90;;;;;20.20;101153.00;;;;2069714;28;21017;-45
2021/04/12 02:44:43;;;;;;;2.28;2.05;;;;;20.20;101144.00;;;;2068326;28;20312;-46
2021/04/12 02:45:46;;;;;;;2.03;1.80;;;;;20.20;101137.00;;;;2060837;28;20688;-45
2021/04/12 02:47:11;;;;;;;2.25;1.75;;;;;20.20;101140.00;;;;2057157;28;20228;-46
2021/04/12 02:48:53;;;;;;;2.60;2.40;;;;;20.20;101155.00;;;;2067208;28;20215;-45
2021/04/12 02:50:02;;;;;;;2.13;1.92;;;;;20.20;101145.00;;;;2074720;28;20198;-45
2021/04/12 02:51:30;;;;;;;2.78;2.40;;;;;20.10;101161.00;;;;2077258;28;20595;-45
2021/04/12 02:52:50;;;;;;;2.58;2.13;;;;;20.20;101159.00;;;;2073808;28;20244;-46
2021/04/12 02:54:12;;;;;;;2.75;2.40;;;;;20.10;101151.00;;;;2063106;28;20691;-45
2021/04/12 02:55:41;;;;;;;3.50;2.22;;;;;20.10;101152.00;;;;2065566;28;20353;-45
2021/04/12 02:57:19;;;;;;;2.08;1.73;;;;;20.20;101156.00;;;;2072790;28;20216;-45
2021/04/12 02:58:35;;;;;;;2.75;2.13;;;;;20.10;101164.00;;;;2078018;28;20225;-45
2021/04/12 03:00:11;;;;;;;2.33;1.83;;;;;20.10;101157.00;;;;2074531;28;20217;-46
2021/04/12 03:01:48;;;;;;;2.70;2.15;;;;;20.10;101166.00;;;;2077583;28;20291;-45
2021/04/12 03:02:48;;;;;;;3.83;2.55;;;;;20.10;101170.00;;;;2077798;28;20220;-45
2021/04/12 03:04:02;;;;;;;2.10;1.83;;;;;20.10;101168.00;;;;2078098;28;20221;-45
2021/04/12 03:05:02;;;;;;;3.83;2.83;;;;;20.10;101165.00;;;;2076294;28;20267;-45
2021/04/12 03:06:50;;;;;;;3.07;2.60;;;;;20.10;101169.00;;;;2076697;28;20301;-45
2021/04/12 03:08:12;;;;;;;2.83;2.30;;;;;20.10;101165.00;;;;2069817;28;20207;-46
2021/04/12 03:09:37;;;;;;;3.08;2.42;;;;;20.00;101161.00;;;;2069722;28;20660;-45
2021/04/12 03:10:37;;;;;;;3.10;2.40;;;;;20.10;101154.00;;;;2076393;28;20214;-45
2021/04/12 03:12:00;;;;;;;2.70;2.17;;;;;20.10;101160.00;;;;2077800;28;20245;-45
2021/04/12 03:13:09;;;;;;;4.03;2.53;;;;;20.10;101166.00;;;;2077355;28;20706;-45
2021/04/12 03:14:38;;;;;;;3.03;2.55;;;;;20.10;101180.00;;;;2061783;28;20219;-45
2021/04/12 03:16:23;;;;;;;2.92;2.35;;;;;20.10;101175.00;;;;2071301;28;20237;-45
2021/04/12 03:17:42;;;;;;;4.22;3.17;;;;;20.10;101181.00;;;;2064896;28;20219;-46
2021/04/12 03:19:19;;;;;;;2.92;2.25;;;;;20.10;101177.00;;;;2072737;28;20209;-46
2021/04/12 03:20:47;;;;;;;3.53;2.50;;;;;20.00;101183.00;;;;2075409;28;20228;-46
2021/04/12 03:22:04;;;;;;;4.55;2.83;;;;;20.00;101170.00;;;;2076961;28;20288;-46
2021/04/12 03:23:14;;;;;;;4.10;2.35;;;;;20.00;101172.00;;;;2070884;28;20222;-46
2021/04/12 03:24:20;;;;;;;3.08;2.42;;;;;20.10;101176.00;;;;2072988;28;20280;-45
2021/04/12 03:25:27;;;;;;;2.90;2.50;;;;;20.00;101174.00;;;;2073359;28;20218;-46
2021/04/12 03:26:43;;;;;;;3.88;2.60;;;;;20.00;101174.00;;;;2069338;28;20937;-46
2021/04/12 03:27:56;;;;;;;3.50;3.00;;;;;20.00;101171.00;;;;2077716;28;20292;-46
2021/04/12 03:29:01;;;;;;;3.70;2.88;;;;;20.00;101180.00;;;;2066917;28;20940;-46
2021/04/12 03:30:28;;;;;;;3.00;2.53;;;;;20.00;101172.00;;;;2057202;28;20219;-44
2021/04/12 03:31:46;;;;;;;3.45;2.63;;;;;20.00;101176.00;;;;2062064;28;20234;-46
2021/04/12 03:33:18;;;;;;;2.67;2.22;;;;;20.00;101165.00;;;;2073255;28;20299;-46
2021/04/12 03:34:20;;;;;;;3.38;2.20;;;;;20.00;101176.00;;;;2067752;28;20279;-45
2021/04/12 03:35:42;;;;;;;3.10;2.65;;;;;20.00;101176.00;;;;2068186;28;20268;-45
2021/04/12 03:37:17;;;;;;;2.45;2.25;;;;;20.00;101173.00;;;;2069249;28;20215;-46
2021/04/12 03:38:28;;;;;;;2.67;2.40;;;;;20.00;101168.00;;;;2076193;28;20202;-45
2021/04/12 03:39:49;;;;;;;2.42;2.00;;;;;20.00;101169.00;;;;2068264;28;20222;-46
2021/04/12 03:40:59;;;;;;;2.88;2.40;;;;;20.00;101165.00;;;;2053645;28;20300;-45
2021/04/12 03:42:11;;;;;;;3.28;2.55;;;;;20.00;101163.00;;;;2071327;28;20213;-45
2021/04/12 03:43:21;;;;;;;2.58;2.38;;;;;20.00;101152.00;;;;2062345;28;20302;-45
2021/04/12 03:44:40;;;;;;;6.80;2.70;;;;;20.00;101164.00;;;;2063777;28;20214;-45
2021/04/12 03:46:02;;;;;;;2.30;2.10;;;;;19.90;101154.00;;;;2076362;28;20213;-45
2021/04/12 03:47:02;;;;;;;2.45;2.25;;;;;20.00;101157.00;;;;2077807;28;20263;-45
2021/04/12 03:48:20;;;;;;;3.40;2.40;;;;;19.90;101153.00;;;;2077696;28;20213;-46
2021/04/12 03:49:57;;;;;;;3.88;2.50;;;;;20.00;101166.00;;;;2077583;28;20704;-46
2021/04/12 03:51:16;;;;;;;3.45;2.47;;;;;19.90;101169.00;;;;2076377;28;20673;-45
2021/04/12 03:52:54;;;;;;;2.67;2.47;;;;;19.90;101170.00;;;;2071403;28;20230;-46
2021/04/12 03:54:03;;;;;;;2.47;2.13;;;;;19.90;101172.00;;;;2076401;28;20217;-45
2021/04/12 03:55:09;;;;;;;4.10;2.60;;;;;19.90;101169.00;;;;2068278;28;20214;-45
2021/04/12 03:56:28;;;;;;;2.90;2.42;;;;;19.90;101170.00;;;;2069817;28;20699;-46
2021/04/12 03:57:50;;;;;;;2.80;2.58;;;;;19.90;101181.00;;;;2074297;28;20303;-46
2021/04/12 03:59:29;;;;;;;3.50;2.78;;;;;19.90;101181.00;;;;2074926;28;20213;-45
2021/04/12 04:00:36;;;;;;;3.67;2.80;;;;;19.90;101179.00;;;;2073147;28;20217;-45
2021/04/12 04:01:51;;;;;;;3.33;2.70;;;;;19.90;101180.00;;;;2072017;28;20276;-46
2021/04/12 04:03:30;;;;;;;3.10;2.80;;;;;19.90;101186.00;;;;2075631;28;20222;-46
2021/04/12 04:05:07;;;;;;;3.30;2.58;;;;;19.90;101187.00;;;;2076596;28;20853;-45
2021/04/12 04:06:10;;;;;;;2.92;2.60;;;;;19.90;101185.00;;;;2069367;28;20214;-45
2021/04/12 04:07:27;;;;;;;5.28;2.80;;;;;19.90;101183.00;;;;2069578;28;20706;-45
2021/04/12 04:08:49;;;;;;;3.20;2.40;;;;;19.90;101182.00;;;;2072277;28;20214;-46
2021/04/12 04:10:14;;;;;;;3.75;2.80;;;;;19.90;101188.00;;;;2070535;28;20233;-45
2021/04/12 04:11:20;;;;;;;3.00;2.20;;;;;19.90;101189.00;;;;2075255;28;20220;-45
2021/04/12 04:12:31;;;;;;;4.35;3.40;;;;;19.90;101183.00;;;;2077686;28;20214;-45
2021/04/12 04:13:41;;;;;;;2.90;2.20;;;;;19.90;101187.00;;;;2072366;28;20217;-45
2021/04/12 04:14:59;;;;;;;3.30;2.78;;;;;19.90;101185.00;;;;2076401;28;20691;-46
2021/04/12 04:16:41;;;;;;;6.28;3.25;;;;;19.90;101195.00;;;;2077870;28;20252;-46
2021/04/12 04:18:06;;;;;;;3.58;2.53;;;;;19.80;101193.00;;;;2074913;28;20216;-45
2021/04/12 04:19:43;;;;;;;3.17;2.72;;;;;19.80;101198.00;;;;2060882;28;20322;-45
2021/04/12 04:20:55;;;;;;;3.42;2.85;;;;;19.90;101205.00;;;;2068961;28;20214;-45
2021/04/12 04:22:21;;;;;;;3.47;3.00;;;;;19.90;101202.00;;;;2069889;28;20301;-46
2021/04/12 04:23:41;;;;;;;3.67;2.60;;;;;19.80;101208.00;;;;2075168;28;20233;-45
2021/04/12 04:25:07;;;;;;;4.45;2.90;;;;;19.90;101205.00;;;;2073011;28;20213;-45
2021/04/12 04:26:26;;;;;;;3.17;2.88;;;;;19.90;101198.00;;;;2066409;28;20619;-46
2021/04/12 04:27:48;;;;;;;3.33;2.83;;;;;19.80;101201.00;;;;2069508;28;20779;-45
2021/04/12 04:28:48;;;;;;;4.05;2.83;;;;;19.80;101212.00;;;;2073878;28;20289;-46
2021/04/12 04:30:10;;;;;;;3.60;3.00;;;;;19.80;101208.00;;;;2076055;28;20217;-45
2021/04/12 04:31:48;;;;;;;3.22;2.92;;;;;19.80;101205.00;;;;2068012;28;20308;-46
2021/04/12 04:33:00;;;;;;;3.25;2.95;;;;;19.80;101202.00;;;;2075096;28;20206;-45
2021/04/12 04:34:15;;;;;;;3.70;2.80;;;;;19.80;101206.00;;;;2069430;28;20225;-46
2021/04/12 04:35:28;;;;;;;3.55;3.10;;;;;19.80;101215.00;;;;2069517;28;20708;-46
2021/04/12 04:36:31;;;;;;;3.30;2.75;;;;;19.80;101210.00;;;;2069134;28;20280;-46
2021/04/12 04:37:44;;;;;;;2.90;2.70;;;;;19.80;101215.00;;;;2069453;28;20214;-45
2021/04/12 04:38:56;;;;;;;3.85;3.33;;;;;19.80;101214.00;;;;2070289;28;20289;-45
2021/04/12 04:40:05;;;;;;;3.70;3.25;;;;;19.80;101211.00;;;;2070147;28;20230;-46
2021/04/12 04:41:33;;;;;;;4.13;2.80;;;;;19.80;101218.00;;;;2067680;28;20218;-46
2021/04/12 04:43:04;;;;;;;3.60;3.30;;;;;19.80;101213.00;;;;2076956;28;20280;-46
2021/04/12 04:44:25;;;;;;;3.55;3.00;;;;;19.80;101223.00;;;;2076898;28;20220;-46
2021/04/12 04:45:56;;;;;;;3.63;3.33;;;;;19.80;101221.00;;;;2077774;28;20586;-46
2021/04/12 04:47:18;;;;;;;3.38;3.08;;;;;19.80;101227.00;;;;2077730;28;20221;-46
2021/04/12 04:48:43;;;;;;;2.97;2.70;;;;;19.80;101216.00;;;;2076441;28;20581;-46
2021/04/12 04:50:24;;;;;;;3.90;3.50;;;;;19.80;101221.00;;;;2073560;28;20254;-45
2021/04/12 04:52:03;;;;;;;4.35;3.15;;;;;19.80;101220.00;;;;2075325;28;20565;-46
2021/04/12 04:53:36;;;;;;;5.85;3.17;;;;;19.80;101218.00;;;;2072227;28;20218;-45
2021/04/12 04:54:58;;;;;;;3.67;3.17;;;;;19.80;101221.00;;;;2070598;28;20292;-45
2021/04/12 04:56:31;;;;;;;3.50;3.20;;;;;19.80;101221.00;;;;2069107;28;20893;-47
2021/04/12 04:57:31;;;;;;;3.55;3.25;;;;;19.80;101225.00;;;;2066358;28;20217;-45
2021/04/12 04:59:25;;;;;;;3.37;3.07;;;;;19.80;101229.00;;;;2071329;28;20309;-45
2021/04/12 05:00:44;;;;;;;3.15;2.85;;;;;19.80;101227.00;;;;2062369;28;20820;-46
2021/04/12 05:01:55;;;;;;;2.78;2.58;;;;;19.80;101240.00;;;;2061771;28;20214;-46
2021/04/12 05:03:14;;;;;;;3.92;3.08;;;;;19.70;101229.00;;;;2052351;28;20661;-45
2021/04/12 05:04:26;;;;;;;3.33;3.03;;;;;19.80;101231.00;;;;2043119;28;20784;-46
2021/04/12 05:05:45;;;;;;;2.97;2.60;;;;;19.80;101238.00;;;;2058422;28;20833;-46
2021/04/12 05:07:01;;;;;;;3.40;3.00;;;;;19.80;101237.00;;;;2068981;28;20241;-45
2021/04/12 05:08:24;;;;;;;3.30;2.90;;;;;19.80;101236.00;;;;2071833;28;20556;-46
2021/04/12 05:09:34;;;;;;;3.08;2.75;;;;;19.80;101235.00;;;;2072531;28;20276;-46
2021/04/12 05:11:00;;;;;;;4.30;2.97;;;;;19.80;101243.00;;;;2070124;28;20510;-45
2021/04/12 05:12:22;;;;;;;3.70;2.83;;;;;19.90;101253.00;;;;2071780;28;20225;-45
2021/04/12 05:13:35;;;;;;;2.97;2.60;;;;;19.90;101253.00;;;;2076784;28;20214;-45
2021/04/12 05:14:45;;;;;;;2.80;2.60;;;;;19.90;101252.00;;;;2074752;28;20295;-47
2021/04/12 05:16:23;;;;;;;3.42;2.80;;;;;19.90;101253.00;;;;2063650;28;20991;-45
2021/04/12 05:17:34;;;;;;;3.65;3.10;;;;;19.90;101258.00;;;;2066134;28;20611;-46
2021/04/12 05:18:39;;;;;;;3.30;2.60;;;;;19.90;101250.00;;;;2075979;28;20217;-44
2021/04/12 05:20:09;;;;;;;2.65;2.45;;;;;19.90;101252.00;;;;2069915;28;20222;-45
2021/04/12 05:22:00;;;;;;;4.00;2.60;;;;;19.90;101260.00;;;;2072704;28;20221;-45
2021/04/12 05:23:00;;;;;;;2.30;2.10;;;;;19.90;101255.00;;;;2082147;28;20213;-44
2021/04/12 05:24:09;;;;;;;2.70;2.50;;;;;19.90;101260.00;;;;2074389;28;20207;-45
2021/04/12 05:25:36;;;;;;;3.63;2.50;;;;;20.00;101260.00;;;;2068332;28;20646;-46
2021/04/12 05:27:00;;;;;;;2.08;1.88;;;;;20.00;101265.00;;;;2077862;28;20226;-45
2021/04/12 05:28:49;;;;;;;4.80;2.78;;;;;20.00;101273.00;;;;2078311;28;20293;-45
2021/04/12 05:30:18;;;;;;;2.95;2.13;;;;;20.00;101279.00;;;;2072908;28;20906;-45
2021/04/12 05:31:36;;;;;;;3.20;2.88;;;;;20.00;101275.00;;;;2070762;28;20233;-45
2021/04/12 05:33:09;;;;;;;4.03;2.50;;;;;20.00;101274.00;;;;2075960;28;20214;-45
2021/04/12 05:34:33;;;;;;;2.38;2.17;;;;;20.00;101278.00;;;;2075444;28;20221;-45
2021/04/12 05:36:11;;;;;;;2.75;2.50;;;;;20.00;101278.00;;;;2072820;28;20222;-46
2021/04/12 05:37:19;;;;;;;2.83;2.60;;;;;20.00;101280.00;;;;2065284;28;20294;-45
2021/04/12 05:38:46;;;;;;;3.10;2.70;;;;;20.00;101279.00;;;;2063616;28;20214;-45
2021/04/12 05:39:58;;;;;;;3.47;2.30;;;;;20.00;101282.00;;;;2072905;28;20591;-45
2021/04/12 05:41:04;;;;;;;2.90;2.53;;;;;20.00;101285.00;;;;2070638;28;20688;-46
2021/04/12 05:42:34;;;;;;;2.67;2.45;;;;;20.00;101289.00;;;;2067321;28;20218;-45
2021/04/12 05:44:01;;;;;;;3.00;2.70;;;;;20.10;101291.00;;;;2069299;28;20721;-46
2021/04/12 05:45:38;;;;;;;4.55;2.47;;;;;20.10;101299.00;;;;2083620;28;20217;-46
2021/04/12 05:46:51;;;;;;;3.28;2.80;;;;;20.10;101299.00;;;;2070101;28;20215;-45
2021/04/12 05:47:51;;;;;;;3.22;2.53;;;;;20.10;101299.00;;;;2070559;28;20206;-45
2021/04/12 05:49:16;;;;;;;3.07;2.53;;;;;20.10;101296.00;;;;2070711;28;20220;-45
2021/04/12 05:50:38;;;;;;;2.58;2.38;;;;;20.10;101296.00;;;;2075831;28;20222;-45
2021/04/12 05:51:59;;;;;;;4.07;2.30;;;;;20.10;101296.00;;;;2079086;28;20230;-45
2021/04/12 05:53:08;;;;;;;2.42;2.10;;;;;20.10;101302.00;;;;2074190;28;20221;-45
2021/04/12 05:54:22;;;;;;;3.05;2.40;;;;;20.10;101250.00;;;;2064770;28;20228;-45
2021/04/12 05:55:23;;;;;;;2.75;2.40;;;;;20.10;101303.00;;;;2067627;28;20232;-45
2021/04/12 05:56:30;;;;;;;2.40;1.87;;;;;20.10;101303.00;;;;2070135;28;20226;-45
2021/04/12 05:57:37;;;;;;;3.58;2.58;;;;;20.10;101304.00;;;;2070226;28;20754;-45
2021/04/12 05:59:15;;;;;;;3.92;2.22;;;;;20.10;101313.00;;;;2062400;28;20710;-45
2021/04/12 06:00:52;;;;;;;3.85;2.80;;;;;20.20;101308.00;;;;2068683;28;20273;-46
2021/04/12 06:02:01;;;;;;;2.95;2.50;;;;;20.20;101311.00;;;;2069851;28;20218;-46
2021/04/12 06:03:32;;;;;;;2.63;2.42;;;;;20.20;101322.00;;;;2069964;28;20324;-45
2021/04/12 06:05:09;;;;;;;3.20;2.78;;;;;20.20;101310.00;;;;2076158;28;20221;-45
2021/04/12 06:06:34;;;;;;;5.45;2.90;;;;;20.20;101314.00;;;;2078715;28;20218;-44
2021/04/12 06:07:53;;;;;;;3.17;2.22;;;;;20.20;101318.00;;;;2077741;28;20225;-46
2021/04/12 06:09:32;;;;;;;2.50;2.30;;;;;20.20;101315.00;;;;2078623;28;20217;-45
2021/04/12 06:10:51;;;;;;;3.13;2.55;;;;;20.20;101321.00;;;;2067495;28;20217;-46
2021/04/12 06:12:22;;;;;;;2.78;2.58;;;;;20.20;101322.00;;;;2071581;28;20219;-46
2021/04/12 06:13:47;;;;;;;3.05;2.33;;;;;20.20;101322.00;;;;2078143;28;20297;-48
2021/04/12 06:15:16;;;;;;;2.70;2.50;;;;;20.20;101315.00;;;;2075772;28;20575;-45
2021/04/12 06:16:27;;;;;;;3.03;2.58;;;;;20.20;101319.00;;;;2076011;28;20280;-47
2021/04/12 06:17:42;;;;;;;2.83;2.38;;;;;20.20;101327.00;;;;2084204;28;20632;-45
2021/04/12 06:18:53;;;;;;;2.75;2.30;;;;;20.20;101319.00;;;;2078341;28;20264;-48
2021/04/12 06:19:56;;;;;;;2.67;2.40;;;;;20.20;101323.00;;;;2069221;28;20215;-46
2021/04/12 06:21:11;;;;;;;2.80;2.50;;;;;20.20;101325.00;;;;2070144;28;20211;-47
2021/04/12 06:22:18;;;;;;;2.72;2.40;;;;;20.30;101335.00;;;;2077970;28;20256;-48
2021/04/12 06:23:34;;;;;;;2.78;2.50;;;;;20.30;101328.00;;;;2071339;28;20219;-47
2021/04/12 06:24:58;;;;;;;3.25;2.60;;;;;20.30;101329.00;;;;2071023;28;20216;-45
2021/04/12 06:26:07;;;;;;;3.28;2.50;;;;;20.30;101331.00;;;;2078031;28;20437;-46
2021/04/12 06:27:45;;;;;;;2.70;2.28;;;;;20.30;101346.00;;;;2077854;28;20285;-48
2021/04/12 06:28:51;;;;;;;3.78;2.72;;;;;20.30;101337.00;;;;2077063;28;20217;-46
2021/04/12 06:29:54;;;;;;;2.90;2.58;;;;;20.30;101333.00;;;;2057762;28;20211;-46